sensor_id;sensor_type;location;lat;lon;timestamp;temperature;humidity
46217;DHT22;47258;59.424;13.482;2023-03-01T00:01:12;1.50;99.90
46217;DHT22;47258;59.424;13.482;2023-03-01T00:03:40;1.50;99.90
46217;DHT22;47258;59.424;13.482;2023-03-01T00:06:08;1.50;99.90
46217;DHT22;47258;59.424;13.482;2023-03-01T00:08:35;1.50;99.90
46217;DHT22;47258;59.424;13.482;2023-03-01T00:11:05;1.60;99.90
46217;DHT22;47258;59.424;13.482;2023-03-01T00:13:32;1.60;99.90
46217;DHT22;47258;59.424;13.482;2023-03-01T00:16:03;1.60;99.90
46217;DHT22;47258;59.424;13.482;2023-03-01T00:18:30;1.60;99.90
46217;DHT22;47258;59.424;13.482;2023-03-01T00:20:58;1.60;99.90
46217;DHT22;47258;59.424;13.482;2023-03-01T00:23:25;1.60;99.90
46217;DHT22;47258;59.424;13.482;2023-03-01T00:25:53;1.60;99.90
46217;DHT22;47258;59.424;13.482;2023-03-01T00:28:20;1.60;99.90
46217;DHT22;47258;59.424;13.482;2023-03-01T00:30:48;1.60;99.90
46217;DHT22;47258;59.424;13.482;2023-03-01T00:33:16;1.60;99.90
46217;DHT22;47258;59.424;13.482;2023-03-01T00:35:43;1.60;99.90
46217;DHT22;47258;59.424;13.482;2023-03-01T00:38:10;1.60;99.90
46217;DHT22;47258;59.424;13.482;2023-03-01T00:40:38;1.60;99.90
46217;DHT22;47258;59.424;13.482;2023-03-01T00:43:05;1.60;99.90
46217;DHT22;47258;59.424;13.482;2023-03-01T00:45:33;1.60;99.90
46217;DHT22;47258;59.424;13.482;2023-03-01T00:48:00;1.70;99.90
46217;DHT22;47258;59.424;13.482;2023-03-01T00:50:28;1.60;99.90
46217;DHT22;47258;59.424;13.482;2023-03-01T00:52:56;1.60;99.90
46217;DHT22;47258;59.424;13.482;2023-03-01T00:55:24;1.60;99.90
46217;DHT22;47258;59.424;13.482;2023-03-01T00:57:51;1.70;99.90
46217;DHT22;47258;59.424;13.482;2023-03-01T01:00:19;1.70;99.90
46217;DHT22;47258;59.424;13.482;2023-03-01T01:02:46;1.70;99.90
46217;DHT22;47258;59.424;13.482;2023-03-01T01:05:14;1.70;99.90
46217;DHT22;47258;59.424;13.482;2023-03-01T01:07:48;1.70;99.90
46217;DHT22;47258;59.424;13.482;2023-03-01T01:10:15;1.70;99.90
46217;DHT22;47258;59.424;13.482;2023-03-01T01:12:46;1.70;99.90
46217;DHT22;47258;59.424;13.482;2023-03-01T01:15:13;1.70;99.90
46217;DHT22;47258;59.424;13.482;2023-03-01T01:17:42;1.70;99.90
46217;DHT22;47258;59.424;13.482;2023-03-01T01:20:10;1.80;99.90
46217;DHT22;47258;59.424;13.482;2023-03-01T01:22:37;1.70;99.90
46217;DHT22;47258;59.424;13.482;2023-03-01T01:25:06;1.70;99.90
46217;DHT22;47258;59.424;13.482;2023-03-01T01:27:33;1.80;99.90
46217;DHT22;47258;59.424;13.482;2023-03-01T01:30:00;1.80;99.90
46217;DHT22;47258;59.424;13.482;2023-03-01T01:32:28;1.70;99.90
46217;DHT22;47258;59.424;13.482;2023-03-01T01:34:55;1.70;99.90
46217;DHT22;47258;59.424;13.482;2023-03-01T01:37:22;1.70;99.90
46217;DHT22;47258;59.424;13.482;2023-03-01T01:39:57;1.70;99.90
46217;DHT22;47258;59.424;13.482;2023-03-01T01:42:26;1.60;99.90
46217;DHT22;47258;59.424;13.482;2023-03-01T01:45:26;1.60;99.90
46217;DHT22;47258;59.424;13.482;2023-03-01T01:47:56;1.60;99.90
46217;DHT22;47258;59.424;13.482;2023-03-01T01:50:25;1.50;99.90
46217;DHT22;47258;59.424;13.482;2023-03-01T01:53:05;1.50;99.90
46217;DHT22;47258;59.424;13.482;2023-03-01T01:55:33;1.50;99.90
46217;DHT22;47258;59.424;13.482;2023-03-01T01:58:06;1.40;99.90
46217;DHT22;47258;59.424;13.482;2023-03-01T02:00:34;1.50;99.90
46217;DHT22;47258;59.424;13.482;2023-03-01T02:03:06;1.40;99.90
46217;DHT22;47258;59.424;13.482;2023-03-01T02:05:38;1.40;99.90
46217;DHT22;47258;59.424;13.482;2023-03-01T02:08:10;1.40;99.90
46217;DHT22;47258;59.424;13.482;2023-03-01T02:10:38;1.30;99.90
46217;DHT22;47258;59.424;13.482;2023-03-01T02:13:07;1.20;99.90
46217;DHT22;47258;59.424;13.482;2023-03-01T02:15:36;1.20;99.90
46217;DHT22;47258;59.424;13.482;2023-03-01T02:18:04;1.20;99.90
46217;DHT22;47258;59.424;13.482;2023-03-01T02:20:35;1.10;99.90
46217;DHT22;47258;59.424;13.482;2023-03-01T02:23:04;1.10;99.90
46217;DHT22;47258;59.424;13.482;2023-03-01T02:25:38;1.00;99.90
46217;DHT22;47258;59.424;13.482;2023-03-01T02:28:18;1.00;99.90
46217;DHT22;47258;59.424;13.482;2023-03-01T02:30:48;0.90;99.90
46217;DHT22;47258;59.424;13.482;2023-03-01T02:33:31;0.90;99.90
46217;DHT22;47258;59.424;13.482;2023-03-01T02:35:59;0.90;99.90
46217;DHT22;47258;59.424;13.482;2023-03-01T02:38:28;0.80;99.90
46217;DHT22;47258;59.424;13.482;2023-03-01T02:40:57;0.80;99.90
46217;DHT22;47258;59.424;13.482;2023-03-01T02:43:29;0.80;99.90
46217;DHT22;47258;59.424;13.482;2023-03-01T02:45:59;0.70;99.90
46217;DHT22;47258;59.424;13.482;2023-03-01T02:48:40;0.70;99.90
46217;DHT22;47258;59.424;13.482;2023-03-01T02:51:12;0.70;99.90
46217;DHT22;47258;59.424;13.482;2023-03-01T02:53:53;0.60;99.90
46217;DHT22;47258;59.424;13.482;2023-03-01T02:56:23;0.50;99.90
46217;DHT22;47258;59.424;13.482;2023-03-01T02:58:52;0.40;99.90
46217;DHT22;47258;59.424;13.482;2023-03-01T03:01:20;0.30;99.90
46217;DHT22;47258;59.424;13.482;2023-03-01T03:03:47;0.30;99.90
46217;DHT22;47258;59.424;13.482;2023-03-01T03:06:14;0.20;99.90
46217;DHT22;47258;59.424;13.482;2023-03-01T03:08:41;0.20;99.90
46217;DHT22;47258;59.424;13.482;2023-03-01T03:11:09;0.20;99.90
46217;DHT22;47258;59.424;13.482;2023-03-01T03:13:36;0.20;99.90
46217;DHT22;47258;59.424;13.482;2023-03-01T03:16:15;0.20;99.90
46217;DHT22;47258;59.424;13.482;2023-03-01T03:18:42;0.20;99.90
46217;DHT22;47258;59.424;13.482;2023-03-01T03:21:10;0.20;99.90
46217;DHT22;47258;59.424;13.482;2023-03-01T03:23:37;0.20;99.90
46217;DHT22;47258;59.424;13.482;2023-03-01T03:26:05;0.10;99.90
46217;DHT22;47258;59.424;13.482;2023-03-01T03:28:33;0.10;99.90
46217;DHT22;47258;59.424;13.482;2023-03-01T03:31:01;0.10;99.90
46217;DHT22;47258;59.424;13.482;2023-03-01T03:33:30;0.10;99.90
46217;DHT22;47258;59.424;13.482;2023-03-01T03:35:58;0.00;99.90
46217;DHT22;47258;59.424;13.482;2023-03-01T03:38:25;0.00;99.90
46217;DHT22;47258;59.424;13.482;2023-03-01T03:41:00;-0.10;99.90
46217;DHT22;47258;59.424;13.482;2023-03-01T03:43:29;-0.10;99.90
46217;DHT22;47258;59.424;13.482;2023-03-01T03:45:56;-0.10;99.90
46217;DHT22;47258;59.424;13.482;2023-03-01T03:48:24;-0.20;99.90
46217;DHT22;47258;59.424;13.482;2023-03-01T03:50:54;-0.20;99.90
46217;DHT22;47258;59.424;13.482;2023-03-01T03:53:23;-0.20;99.90
46217;DHT22;47258;59.424;13.482;2023-03-01T03:55:51;-0.20;99.90
46217;DHT22;47258;59.424;13.482;2023-03-01T03:58:19;-0.20;99.90
46217;DHT22;47258;59.424;13.482;2023-03-01T04:00:49;-0.30;99.90
46217;DHT22;47258;59.424;13.482;2023-03-01T04:03:17;-0.30;99.90
46217;DHT22;47258;59.424;13.482;2023-03-01T04:05:46;-0.30;99.90
46217;DHT22;47258;59.424;13.482;2023-03-01T04:08:17;-0.30;99.90
46217;DHT22;47258;59.424;13.482;2023-03-01T04:10:47;-0.40;99.90
46217;DHT22;47258;59.424;13.482;2023-03-01T04:13:16;-0.40;99.90
46217;DHT22;47258;59.424;13.482;2023-03-01T04:15:45;-0.40;99.90
46217;DHT22;47258;59.424;13.482;2023-03-01T04:18:14;-0.40;99.90
46217;DHT22;47258;59.424;13.482;2023-03-01T04:20:42;-0.50;99.90
46217;DHT22;47258;59.424;13.482;2023-03-01T04:23:12;-0.50;99.90
46217;DHT22;47258;59.424;13.482;2023-03-01T04:25:46;-0.60;99.90
46217;DHT22;47258;59.424;13.482;2023-03-01T04:28:19;-0.60;99.90
46217;DHT22;47258;59.424;13.482;2023-03-01T04:30:46;-0.60;99.90
46217;DHT22;47258;59.424;13.482;2023-03-01T04:33:13;-0.60;99.90
46217;DHT22;47258;59.424;13.482;2023-03-01T04:35:40;-0.60;99.90
46217;DHT22;47258;59.424;13.482;2023-03-01T04:38:08;-0.60;99.90
46217;DHT22;47258;59.424;13.482;2023-03-01T04:40:36;-0.60;99.90
46217;DHT22;47258;59.424;13.482;2023-03-01T04:43:04;-0.60;99.90
46217;DHT22;47258;59.424;13.482;2023-03-01T04:45:32;-0.60;99.90
46217;DHT22;47258;59.424;13.482;2023-03-01T04:48:01;-0.70;99.90
46217;DHT22;47258;59.424;13.482;2023-03-01T04:50:28;-0.70;99.90
46217;DHT22;47258;59.424;13.482;2023-03-01T04:52:55;-0.80;99.90
46217;DHT22;47258;59.424;13.482;2023-03-01T04:55:24;-0.80;99.90
46217;DHT22;47258;59.424;13.482;2023-03-01T04:57:52;-0.80;99.90
46217;DHT22;47258;59.424;13.482;2023-03-01T05:00:22;-0.80;99.90
46217;DHT22;47258;59.424;13.482;2023-03-01T05:02:50;-0.80;99.90
46217;DHT22;47258;59.424;13.482;2023-03-01T05:05:25;-0.90;99.90
46217;DHT22;47258;59.424;13.482;2023-03-01T05:07:54;-0.90;99.90
46217;DHT22;47258;59.424;13.482;2023-03-01T05:10:22;-1.00;99.90
46217;DHT22;47258;59.424;13.482;2023-03-01T05:12:49;-1.00;99.90
46217;DHT22;47258;59.424;13.482;2023-03-01T05:15:17;-1.10;99.90
46217;DHT22;47258;59.424;13.482;2023-03-01T05:17:46;-1.10;99.90
46217;DHT22;47258;59.424;13.482;2023-03-01T05:20:13;-1.00;99.90
46217;DHT22;47258;59.424;13.482;2023-03-01T05:22:40;-1.00;99.90
46217;DHT22;47258;59.424;13.482;2023-03-01T05:25:07;-1.00;99.90
46217;DHT22;47258;59.424;13.482;2023-03-01T05:27:35;-1.00;99.90
46217;DHT22;47258;59.424;13.482;2023-03-01T05:30:02;-1.00;99.90
46217;DHT22;47258;59.424;13.482;2023-03-01T05:32:40;-1.00;99.90
46217;DHT22;47258;59.424;13.482;2023-03-01T05:35:10;-1.10;99.90
46217;DHT22;47258;59.424;13.482;2023-03-01T05:37:40;-1.10;99.90
46217;DHT22;47258;59.424;13.482;2023-03-01T05:40:08;-1.10;99.90
46217;DHT22;47258;59.424;13.482;2023-03-01T05:42:42;-1.10;99.90
46217;DHT22;47258;59.424;13.482;2023-03-01T05:45:10;-1.00;99.90
46217;DHT22;47258;59.424;13.482;2023-03-01T05:47:39;-1.00;99.90
46217;DHT22;47258;59.424;13.482;2023-03-01T05:50:12;-1.10;99.90
46217;DHT22;47258;59.424;13.482;2023-03-01T05:52:43;-1.00;99.90
46217;DHT22;47258;59.424;13.482;2023-03-01T05:55:10;-1.00;99.90
46217;DHT22;47258;59.424;13.482;2023-03-01T05:57:37;-1.00;99.90
46217;DHT22;47258;59.424;13.482;2023-03-01T06:00:06;-1.00;99.90
46217;DHT22;47258;59.424;13.482;2023-03-01T06:02:33;-1.00;99.90
46217;DHT22;47258;59.424;13.482;2023-03-01T06:05:00;-1.00;99.90
46217;DHT22;47258;59.424;13.482;2023-03-01T06:07:29;-1.00;99.90
46217;DHT22;47258;59.424;13.482;2023-03-01T06:09:56;-1.00;99.90
46217;DHT22;47258;59.424;13.482;2023-03-01T06:12:23;-1.00;99.90
46217;DHT22;47258;59.424;13.482;2023-03-01T06:14:50;-1.00;99.90
46217;DHT22;47258;59.424;13.482;2023-03-01T06:17:17;-1.00;99.90
46217;DHT22;47258;59.424;13.482;2023-03-01T06:19:44;-1.00;99.90
46217;DHT22;47258;59.424;13.482;2023-03-01T06:22:12;-1.00;99.90
46217;DHT22;47258;59.424;13.482;2023-03-01T06:24:41;-1.00;99.90
46217;DHT22;47258;59.424;13.482;2023-03-01T06:27:08;-0.90;99.90
46217;DHT22;47258;59.424;13.482;2023-03-01T06:29:35;-0.90;99.90
46217;DHT22;47258;59.424;13.482;2023-03-01T06:32:02;-0.90;99.90
46217;DHT22;47258;59.424;13.482;2023-03-01T06:34:30;-0.90;99.90
46217;DHT22;47258;59.424;13.482;2023-03-01T06:36:57;-1.00;99.90
46217;DHT22;47258;59.424;13.482;2023-03-01T06:39:24;-1.00;99.90
46217;DHT22;47258;59.424;13.482;2023-03-01T06:41:53;-1.00;99.90
46217;DHT22;47258;59.424;13.482;2023-03-01T06:44:20;-1.00;99.90
46217;DHT22;47258;59.424;13.482;2023-03-01T06:46:47;-1.00;99.90
46217;DHT22;47258;59.424;13.482;2023-03-01T06:49:14;-0.90;99.90
46217;DHT22;47258;59.424;13.482;2023-03-01T06:51:41;-0.90;99.90
46217;DHT22;47258;59.424;13.482;2023-03-01T06:54:09;-0.80;99.90
46217;DHT22;47258;59.424;13.482;2023-03-01T06:56:36;-0.70;99.90
46217;DHT22;47258;59.424;13.482;2023-03-01T06:59:05;-0.60;99.90
46217;DHT22;47258;59.424;13.482;2023-03-01T07:01:32;-0.30;99.90
46217;DHT22;47258;59.424;13.482;2023-03-01T07:03:59;-0.10;99.90
46217;DHT22;47258;59.424;13.482;2023-03-01T07:06:26;0.10;99.90
46217;DHT22;47258;59.424;13.482;2023-03-01T07:08:53;0.50;99.90
46217;DHT22;47258;59.424;13.482;2023-03-01T07:11:20;1.10;99.90
46217;DHT22;47258;59.424;13.482;2023-03-01T07:13:47;1.30;99.90
46217;DHT22;47258;59.424;13.482;2023-03-01T07:16:15;1.50;99.90
46217;DHT22;47258;59.424;13.482;2023-03-01T07:18:42;1.60;99.90
46217;DHT22;47258;59.424;13.482;2023-03-01T07:21:12;1.40;99.90
46217;DHT22;47258;59.424;13.482;2023-03-01T07:23:39;1.20;99.90
46217;DHT22;47258;59.424;13.482;2023-03-01T07:26:06;1.00;99.90
46217;DHT22;47258;59.424;13.482;2023-03-01T07:28:33;0.80;99.90
46217;DHT22;47258;59.424;13.482;2023-03-01T07:31:02;0.70;99.90
46217;DHT22;47258;59.424;13.482;2023-03-01T07:33:30;0.80;99.90
46217;DHT22;47258;59.424;13.482;2023-03-01T07:35:58;0.80;99.90
46217;DHT22;47258;59.424;13.482;2023-03-01T07:38:25;0.90;99.90
46217;DHT22;47258;59.424;13.482;2023-03-01T07:40:52;1.10;99.90
46217;DHT22;47258;59.424;13.482;2023-03-01T07:43:19;1.50;99.90
46217;DHT22;47258;59.424;13.482;2023-03-01T07:45:47;1.50;99.90
46217;DHT22;47258;59.424;13.482;2023-03-01T07:48:14;1.60;99.90
46217;DHT22;47258;59.424;13.482;2023-03-01T07:50:42;1.90;99.90
46217;DHT22;47258;59.424;13.482;2023-03-01T07:53:09;2.10;99.90
46217;DHT22;47258;59.424;13.482;2023-03-01T07:55:36;2.00;99.90
46217;DHT22;47258;59.424;13.482;2023-03-01T07:58:04;1.90;99.90
46217;DHT22;47258;59.424;13.482;2023-03-01T08:00:31;2.00;99.90
46217;DHT22;47258;59.424;13.482;2023-03-01T08:02:59;2.50;99.90
46217;DHT22;47258;59.424;13.482;2023-03-01T08:05:27;3.10;99.90
46217;DHT22;47258;59.424;13.482;2023-03-01T08:07:55;3.90;99.90
46217;DHT22;47258;59.424;13.482;2023-03-01T08:10:22;5.10;99.90
46217;DHT22;47258;59.424;13.482;2023-03-01T08:12:51;6.50;99.90
46217;DHT22;47258;59.424;13.482;2023-03-01T08:15:19;6.80;99.90
46217;DHT22;47258;59.424;13.482;2023-03-01T08:17:49;6.00;99.90
46217;DHT22;47258;59.424;13.482;2023-03-01T08:20:16;5.20;99.90
46217;DHT22;47258;59.424;13.482;2023-03-01T08:22:43;4.50;99.90
46217;DHT22;47258;59.424;13.482;2023-03-01T08:25:12;4.70;99.90
46217;DHT22;47258;59.424;13.482;2023-03-01T08:27:39;6.00;99.90
46217;DHT22;47258;59.424;13.482;2023-03-01T08:30:07;7.30;99.90
46217;DHT22;47258;59.424;13.482;2023-03-01T08:32:38;8.40;99.90
46217;DHT22;47258;59.424;13.482;2023-03-01T08:35:06;9.00;99.90
46217;DHT22;47258;59.424;13.482;2023-03-01T08:37:34;9.30;99.90
46217;DHT22;47258;59.424;13.482;2023-03-01T08:40:01;9.90;99.90
46217;DHT22;47258;59.424;13.482;2023-03-01T08:42:30;10.40;99.90
46217;DHT22;47258;59.424;13.482;2023-03-01T08:44:59;11.40;99.90
46217;DHT22;47258;59.424;13.482;2023-03-01T08:47:26;12.00;99.90
46217;DHT22;47258;59.424;13.482;2023-03-01T08:49:53;12.70;99.90
46217;DHT22;47258;59.424;13.482;2023-03-01T08:52:20;13.40;99.90
46217;DHT22;47258;59.424;13.482;2023-03-01T08:54:48;13.30;99.90
46217;DHT22;47258;59.424;13.482;2023-03-01T08:57:15;13.40;99.90
46217;DHT22;47258;59.424;13.482;2023-03-01T08:59:44;13.60;99.90
46217;DHT22;47258;59.424;13.482;2023-03-01T09:02:12;12.80;99.90
46217;DHT22;47258;59.424;13.482;2023-03-01T09:04:40;11.90;99.90
46217;DHT22;47258;59.424;13.482;2023-03-01T09:07:07;11.80;99.90
46217;DHT22;47258;59.424;13.482;2023-03-01T09:09:35;12.40;99.90
46217;DHT22;47258;59.424;13.482;2023-03-01T09:12:03;13.00;99.90
46217;DHT22;47258;59.424;13.482;2023-03-01T09:14:31;12.80;99.90
46217;DHT22;47258;59.424;13.482;2023-03-01T09:17:00;12.10;99.90
46217;DHT22;47258;59.424;13.482;2023-03-01T09:19:28;11.70;99.90
46217;DHT22;47258;59.424;13.482;2023-03-01T09:21:55;11.60;99.90
46217;DHT22;47258;59.424;13.482;2023-03-01T09:24:24;11.80;99.90
46217;DHT22;47258;59.424;13.482;2023-03-01T09:26:53;12.20;99.90
46217;DHT22;47258;59.424;13.482;2023-03-01T09:29:21;12.40;99.90
46217;DHT22;47258;59.424;13.482;2023-03-01T09:31:48;12.50;99.90
46217;DHT22;47258;59.424;13.482;2023-03-01T09:34:16;12.20;99.90
46217;DHT22;47258;59.424;13.482;2023-03-01T09:36:49;12.00;99.90
46217;DHT22;47258;59.424;13.482;2023-03-01T09:39:16;11.20;99.90
46217;DHT22;47258;59.424;13.482;2023-03-01T09:41:48;10.50;99.90
46217;DHT22;47258;59.424;13.482;2023-03-01T09:44:27;9.70;99.90
46217;DHT22;47258;59.424;13.482;2023-03-01T09:46:55;9.20;99.90
46217;DHT22;47258;59.424;13.482;2023-03-01T09:49:26;8.80;99.90
46217;DHT22;47258;59.424;13.482;2023-03-01T09:52:00;8.50;99.90
46217;DHT22;47258;59.424;13.482;2023-03-01T09:54:27;8.20;99.90
46217;DHT22;47258;59.424;13.482;2023-03-01T09:57:05;8.10;99.90
46217;DHT22;47258;59.424;13.482;2023-03-01T09:59:40;8.00;99.90
46217;DHT22;47258;59.424;13.482;2023-03-01T10:02:23;8.00;99.90
46217;DHT22;47258;59.424;13.482;2023-03-01T10:05:00;8.00;99.90
46217;DHT22;47258;59.424;13.482;2023-03-01T10:07:38;8.00;99.90
46217;DHT22;47258;59.424;13.482;2023-03-01T10:10:07;8.00;99.90
46217;DHT22;47258;59.424;13.482;2023-03-01T10:12:37;7.90;99.90
46217;DHT22;47258;59.424;13.482;2023-03-01T10:15:10;7.90;99.90
46217;DHT22;47258;59.424;13.482;2023-03-01T10:17:41;8.00;99.90
46217;DHT22;47258;59.424;13.482;2023-03-01T10:20:17;8.00;99.90
46217;DHT22;47258;59.424;13.482;2023-03-01T10:22:45;8.00;99.90
46217;DHT22;47258;59.424;13.482;2023-03-01T10:25:20;8.10;99.90
46217;DHT22;47258;59.424;13.482;2023-03-01T10:27:53;8.10;99.90
46217;DHT22;47258;59.424;13.482;2023-03-01T10:30:22;8.10;99.90
46217;DHT22;47258;59.424;13.482;2023-03-01T10:32:54;8.20;99.90
46217;DHT22;47258;59.424;13.482;2023-03-01T10:35:24;8.20;99.90
46217;DHT22;47258;59.424;13.482;2023-03-01T10:37:58;8.20;99.90
46217;DHT22;47258;59.424;13.482;2023-03-01T10:40:28;8.20;99.90
46217;DHT22;47258;59.424;13.482;2023-03-01T10:42:58;8.20;99.90
46217;DHT22;47258;59.424;13.482;2023-03-01T10:45:33;8.20;99.90
46217;DHT22;47258;59.424;13.482;2023-03-01T10:48:16;8.20;99.90
46217;DHT22;47258;59.424;13.482;2023-03-01T10:50:48;8.30;99.90
46217;DHT22;47258;59.424;13.482;2023-03-01T10:53:24;8.30;99.90
46217;DHT22;47258;59.424;13.482;2023-03-01T10:56:00;8.30;99.90
46217;DHT22;47258;59.424;13.482;2023-03-01T10:58:28;8.30;99.90
46217;DHT22;47258;59.424;13.482;2023-03-01T11:00:57;8.30;99.90
46217;DHT22;47258;59.424;13.482;2023-03-01T11:03:27;8.40;99.90
46217;DHT22;47258;59.424;13.482;2023-03-01T11:06:02;8.50;99.90
46217;DHT22;47258;59.424;13.482;2023-03-01T11:08:38;8.50;99.90
46217;DHT22;47258;59.424;13.482;2023-03-01T11:11:24;8.40;99.90
46217;DHT22;47258;59.424;13.482;2023-03-01T11:13:55;8.40;99.90
46217;DHT22;47258;59.424;13.482;2023-03-01T11:16:34;8.30;99.90
46217;DHT22;47258;59.424;13.482;2023-03-01T11:19:15;8.30;99.90
46217;DHT22;47258;59.424;13.482;2023-03-01T11:21:53;8.30;99.90
46217;DHT22;47258;59.424;13.482;2023-03-01T11:24:26;8.20;99.90
46217;DHT22;47258;59.424;13.482;2023-03-01T11:26:55;8.20;99.90
46217;DHT22;47258;59.424;13.482;2023-03-01T11:29:28;8.20;99.90
46217;DHT22;47258;59.424;13.482;2023-03-01T11:32:00;8.20;99.90
46217;DHT22;47258;59.424;13.482;2023-03-01T11:34:38;8.10;99.90
46217;DHT22;47258;59.424;13.482;2023-03-01T11:37:16;8.10;99.90
46217;DHT22;47258;59.424;13.482;2023-03-01T11:39:55;8.20;99.90
46217;DHT22;47258;59.424;13.482;2023-03-01T11:42:35;8.10;99.90
46217;DHT22;47258;59.424;13.482;2023-03-01T11:45:08;8.20;99.90
46217;DHT22;47258;59.424;13.482;2023-03-01T11:47:50;8.20;99.90
46217;DHT22;47258;59.424;13.482;2023-03-01T11:50:28;8.20;99.90
46217;DHT22;47258;59.424;13.482;2023-03-01T11:53:11;8.20;99.90
46217;DHT22;47258;59.424;13.482;2023-03-01T11:56:00;8.20;99.90
46217;DHT22;47258;59.424;13.482;2023-03-01T11:58:54;8.10;99.90
46217;DHT22;47258;59.424;13.482;2023-03-01T12:01:42;8.10;99.90
46217;DHT22;47258;59.424;13.482;2023-03-01T12:07:09;8.20;99.90
46217;DHT22;47258;59.424;13.482;2023-03-01T12:09:59;8.20;99.90
46217;DHT22;47258;59.424;13.482;2023-03-01T12:12:33;8.20;99.90
46217;DHT22;47258;59.424;13.482;2023-03-01T12:15:21;8.30;99.90
46217;DHT22;47258;59.424;13.482;2023-03-01T12:20:51;8.40;99.90
46217;DHT22;47258;59.424;13.482;2023-03-01T12:26:22;8.50;99.90
46217;DHT22;47258;59.424;13.482;2023-03-01T12:29:08;8.50;99.90
46217;DHT22;47258;59.424;13.482;2023-03-01T12:31:54;8.50;99.90
46217;DHT22;47258;59.424;13.482;2023-03-01T12:34:38;8.60;99.90
46217;DHT22;47258;59.424;13.482;2023-03-01T12:37:21;8.60;99.90
46217;DHT22;47258;59.424;13.482;2023-03-01T12:40:02;8.70;99.90
46217;DHT22;47258;59.424;13.482;2023-03-01T12:42:40;8.70;99.90
46217;DHT22;47258;59.424;13.482;2023-03-01T12:45:27;8.80;99.90
46217;DHT22;47258;59.424;13.482;2023-03-01T12:48:14;8.90;99.90
46217;DHT22;47258;59.424;13.482;2023-03-01T12:50:49;9.00;99.90
46217;DHT22;47258;59.424;13.482;2023-03-01T12:53:23;9.00;99.90
46217;DHT22;47258;59.424;13.482;2023-03-01T12:55:53;9.00;99.90
46217;DHT22;47258;59.424;13.482;2023-03-01T12:58:26;9.00;99.90
46217;DHT22;47258;59.424;13.482;2023-03-01T13:01:13;9.00;99.90
46217;DHT22;47258;59.424;13.482;2023-03-01T13:04:04;9.00;99.90
46217;DHT22;47258;59.424;13.482;2023-03-01T13:06:37;9.00;99.90
46217;DHT22;47258;59.424;13.482;2023-03-01T13:09:15;9.00;99.90
46217;DHT22;47258;59.424;13.482;2023-03-01T13:11:44;8.90;99.90
46217;DHT22;47258;59.424;13.482;2023-03-01T13:14:46;8.90;99.90
46217;DHT22;47258;59.424;13.482;2023-03-01T13:17:32;8.90;99.90
46217;DHT22;47258;59.424;13.482;2023-03-01T13:20:00;8.90;99.90
46217;DHT22;47258;59.424;13.482;2023-03-01T13:22:30;8.90;99.90
46217;DHT22;47258;59.424;13.482;2023-03-01T13:25:03;9.00;99.90
46217;DHT22;47258;59.424;13.482;2023-03-01T13:27:38;9.00;99.90
46217;DHT22;47258;59.424;13.482;2023-03-01T13:30:40;9.00;99.90
46217;DHT22;47258;59.424;13.482;2023-03-01T13:33:41;9.10;99.90
46217;DHT22;47258;59.424;13.482;2023-03-01T13:36:09;9.10;99.90
46217;DHT22;47258;59.424;13.482;2023-03-01T13:38:45;9.10;99.90
46217;DHT22;47258;59.424;13.482;2023-03-01T13:41:14;9.00;99.90
46217;DHT22;47258;59.424;13.482;2023-03-01T13:43:42;9.00;99.90
46217;DHT22;47258;59.424;13.482;2023-03-01T13:46:16;9.00;99.90
46217;DHT22;47258;59.424;13.482;2023-03-01T13:48:45;9.00;99.90
46217;DHT22;47258;59.424;13.482;2023-03-01T13:51:14;8.90;99.90
46217;DHT22;47258;59.424;13.482;2023-03-01T13:53:45;8.90;99.90
46217;DHT22;47258;59.424;13.482;2023-03-01T13:56:15;8.90;99.90
46217;DHT22;47258;59.424;13.482;2023-03-01T13:58:48;8.90;99.90
46217;DHT22;47258;59.424;13.482;2023-03-01T14:01:26;9.00;99.90
46217;DHT22;47258;59.424;13.482;2023-03-01T14:03:53;9.00;99.90
46217;DHT22;47258;59.424;13.482;2023-03-01T14:06:23;9.00;99.90
46217;DHT22;47258;59.424;13.482;2023-03-01T14:08:59;9.00;99.90
46217;DHT22;47258;59.424;13.482;2023-03-01T14:11:55;9.00;99.90
46217;DHT22;47258;59.424;13.482;2023-03-01T14:14:35;9.00;99.90
46217;DHT22;47258;59.424;13.482;2023-03-01T14:17:33;8.90;99.90
46217;DHT22;47258;59.424;13.482;2023-03-01T14:20:11;8.90;99.90
46217;DHT22;47258;59.424;13.482;2023-03-01T14:22:41;8.90;99.90
46217;DHT22;47258;59.424;13.482;2023-03-01T14:25:21;8.90;99.90
46217;DHT22;47258;59.424;13.482;2023-03-01T14:27:59;8.90;99.90
46217;DHT22;47258;59.424;13.482;2023-03-01T14:30:30;8.90;99.90
46217;DHT22;47258;59.424;13.482;2023-03-01T14:33:01;8.90;99.90
46217;DHT22;47258;59.424;13.482;2023-03-01T14:35:30;8.70;99.90
46217;DHT22;47258;59.424;13.482;2023-03-01T14:37:57;8.60;99.90
46217;DHT22;47258;59.424;13.482;2023-03-01T14:40:27;8.50;99.90
46217;DHT22;47258;59.424;13.482;2023-03-01T14:42:57;8.40;99.90
46217;DHT22;47258;59.424;13.482;2023-03-01T14:45:26;8.30;99.90
46217;DHT22;47258;59.424;13.482;2023-03-01T14:47:54;8.20;99.90
46217;DHT22;47258;59.424;13.482;2023-03-01T14:50:26;8.10;99.90
46217;DHT22;47258;59.424;13.482;2023-03-01T14:52:55;8.10;99.90
46217;DHT22;47258;59.424;13.482;2023-03-01T14:55:28;8.10;99.90
46217;DHT22;47258;59.424;13.482;2023-03-01T14:57:56;8.10;99.90
46217;DHT22;47258;59.424;13.482;2023-03-01T15:00:26;8.10;99.90
46217;DHT22;47258;59.424;13.482;2023-03-01T15:02:55;8.20;99.90
46217;DHT22;47258;59.424;13.482;2023-03-01T15:05:29;8.20;99.90
46217;DHT22;47258;59.424;13.482;2023-03-01T15:07:58;8.20;99.90
46217;DHT22;47258;59.424;13.482;2023-03-01T15:10:28;8.20;99.90
46217;DHT22;47258;59.424;13.482;2023-03-01T15:12:56;8.20;99.90
46217;DHT22;47258;59.424;13.482;2023-03-01T15:15:38;8.20;99.90
46217;DHT22;47258;59.424;13.482;2023-03-01T15:18:16;8.10;99.90
46217;DHT22;47258;59.424;13.482;2023-03-01T15:20:45;8.10;99.90
46217;DHT22;47258;59.424;13.482;2023-03-01T15:23:20;8.10;99.90
46217;DHT22;47258;59.424;13.482;2023-03-01T15:25:48;8.10;99.90
46217;DHT22;47258;59.424;13.482;2023-03-01T15:28:24;8.00;99.90
46217;DHT22;47258;59.424;13.482;2023-03-01T15:30:56;8.00;99.90
46217;DHT22;47258;59.424;13.482;2023-03-01T15:33:36;8.00;99.90
46217;DHT22;47258;59.424;13.482;2023-03-01T15:36:30;8.00;99.90
46217;DHT22;47258;59.424;13.482;2023-03-01T15:38:57;8.00;99.90
46217;DHT22;47258;59.424;13.482;2023-03-01T15:41:27;7.90;99.90
46217;DHT22;47258;59.424;13.482;2023-03-01T15:43:57;7.90;99.90
46217;DHT22;47258;59.424;13.482;2023-03-01T15:46:27;7.90;99.90
46217;DHT22;47258;59.424;13.482;2023-03-01T15:48:57;7.80;99.90
46217;DHT22;47258;59.424;13.482;2023-03-01T15:51:31;7.80;99.90
46217;DHT22;47258;59.424;13.482;2023-03-01T15:54:00;7.70;99.90
46217;DHT22;47258;59.424;13.482;2023-03-01T15:56:28;7.70;99.90
46217;DHT22;47258;59.424;13.482;2023-03-01T15:59:00;7.60;99.90
46217;DHT22;47258;59.424;13.482;2023-03-01T16:01:28;7.60;99.90